Stone Cabin, Nevada Weather observations

Data are for observation ending at time listed.
 Day   Time    Ave.   Ave.  Ave.  Vector   Max.   Stn.    Total    Solar   Ave.  
  of    of     Air    Rel.  Wind   Wind    Wind   Baro.  Precip.   Rad.    Soil  
Year   Day     Temp.  Hum.  Speed  Dir.    Gust   Pres.                    Temp. 
2014   (PST)    F      %     mph   deg.    mph     mb.     in.     W/m2     F   
------------------------------------------------------------------------------
 328   21:00   21.4    44    1.9   305      3.7    833     0.00       0    36.7
 328   22:00   18.3    47    2.4   307      6.0    833     0.00       0    35.9
 328   23:00   17.9    48    2.1   311      5.2    833     0.00       0    35.3
 329    0:00   16.2    51    2.2   300      4.7    832     0.00       0    34.8
 329    1:00   14.2    55    2.0   299      3.9    833     0.00       0    34.3
 329    2:00   13.2    56    2.2   320      4.3    833     0.00       0    33.9
 329    3:00   12.2    58    1.5   314      5.9    832     0.00       0    33.4
 329    4:00   11.5    60    1.8   312      8.5    832     0.00       0    33.0
 329    5:00   11.3    61    2.2   316      5.3    833     0.00       0    32.7
 329    6:00   11.7    61    1.9   293      4.2    833     0.00       0    32.3
 329    7:00   12.7    61    1.9   296      4.1    834     0.00       4    32.1
 329    8:00   15.8    55    1.4   305      3.8    834     0.00      43    31.9
 329    9:00   29.0    37    1.2   330      3.8    834     0.00     161    32.2
 329   10:00   39.1    27    1.5   106      3.9    833     0.00     278    33.3
 329   11:00   44.6    22    1.9   131      5.0    833     0.00     533    35.1
 329   12:00   48.8    22    2.4   117      6.3    832     0.00     566    37.8
 329   13:00   53.7    20    3.1   129      6.4    831     0.00     513    40.2
 329   14:00   55.8    20    3.3   117      6.3    828     0.00     440    41.6
 329   15:00   58.3    18    2.6   138      6.6    829     0.00     298    42.3
 329   16:00   58.1    21    5.6   294     14.0    828     0.00     128    42.4
 329   17:00   53.9    25    7.5   294     15.2    828     0.00       6    41.9
 329   18:00   45.3    31    2.3   311     11.4    829     0.00       0    41.3
 329   19:00   35.0    40    1.3   299      6.9    829     0.00       0    40.4
 329   20:00   32.4    43    1.7   321      5.8    830     0.00       0    39.3

Return to Stone Cabin, Nevada graphs page.


Western Regional Climate Center,wrcc@dri.edu